Pagina principale
METAR-TAF:

METAR-TAF

Aeroporti :

Aeroporto di Alghero-Fertilia

Alghero, Italia

latitudine: 40-38N, longitudine: 008-17E, altezza: 23 m

Osservazione

Il bollettino è stato emesso 26 minuti fa, alle 01:20 UTC
Vento 1 kt da nord/nord-ovest
Temperature 16°C
Umidità 94%
Pressione 1017 hPa
Visibilità 10 km o più
nessuna nube inferiore a 1500 m e nessun cumulonembo

METAR: LIEA 280120Z 33001KT CAVOK 16/15 Q1017

Ora: 03:46 (01:46 UTC)

Previsione

Il bollettino è stato emesso 2 ore e 46 minuti fa, alle 23:00 UTC
Previsione valida dal 28 alle 00 UTC al 28 alle 24 UTC
Vento 5 kt da direzioni variabili
Visibilità 10 km o più
Poco nuvoloso ad un'altezza di 4000 ft
Evoluzione graduale
dal 28 alle 07 UTC al 28 alle 09 UTC
Vento 10 kt da ovest/nord-ovest
Evoluzione graduale
dal 28 alle 17 UTC al 28 alle 19 UTC
Vento 5 kt da direzioni variabili

TAF: LIEA 272300Z 2800/2824 VRB05KT 9999 FEW040 BECMG 2807/2809 29010KT BECMG 2817/2819 VRB05KT

Osservazioni e previsioni meteorologiche di più di 4000 aeroporti (messaggi METAR e TAF).

Le stazioni disponibili sono rappresentate dai dischi gialli e rossi sulla carta.

Puntare il mouse per vedere il nome della stazione.

Clicca sopra per visualizzare le osservazioni e previsioni meteorologiche.

Per cambiare la mappa : fare clic sui pulsanti verdi con una croce nera per ingrandire, il pulsante verde con un trattino per diminuire, o sulla freccia verde per le mappe adiacenti.


METAR-TAF: